Quitaque, Texas
Current Conditions -  °F | °C
As of 1:15 AM on Friday 19 Dec 2014 (Local Time) from KPVW Reporting Station
Moderate Rain Moderate Rain  
Wind Chill: 32°   Ceiling: 700
Heat Index: 37°   Visibility: 4mi
Dew Point: 36°   Wind: 7mph
Humidity: 93%   Direction: 80°E
Pressure: 30.12"   Gusts: NA
Location:  34.37°N, 101.06°W
Report Text: KPVW 190715Z AUTO 08006KT 4SM RA BKN007 OVC036 03/02 A3012 RMK AO2 T00300020
Loading
Personal Weather Stations






























Interactive Weather Map New forecast layout! Learn more

10-Day Weather Forecast

Advertisements
Track Severe Weather on mobile